createdAt,value
2023-03-19T00:00:29.484Z,54.10
2023-03-19T00:02:56.355Z,57.90
2023-03-19T00:05:23.433Z,64.40
2023-03-19T00:07:50.502Z,56.70
2023-03-19T00:10:19.046Z,54.60
2023-03-19T00:12:46.818Z,61.10
2023-03-19T00:15:15.478Z,57.80
2023-03-19T00:17:43.366Z,48.80
2023-03-19T00:20:11.610Z,45.80
2023-03-19T00:22:41.502Z,58.80
2023-03-19T00:25:09.708Z,55.10
2023-03-19T00:27:37.854Z,57.10
2023-03-19T00:30:06.139Z,50.60
2023-03-19T00:32:35.206Z,49.80
2023-03-19T00:35:03.087Z,55.40
2023-03-19T00:37:29.948Z,48.50
2023-03-19T00:40:01.807Z,54.30
2023-03-19T00:42:30.994Z,59.20
2023-03-19T00:44:57.596Z,52.10
2023-03-19T00:47:26.116Z,57.20
2023-03-19T00:49:53.615Z,56.30
2023-03-19T00:52:20.247Z,50.80
2023-03-19T00:54:47.282Z,57.50
2023-03-19T00:57:14.072Z,47.50
2023-03-19T00:59:40.902Z,52.60
2023-03-19T01:02:08.286Z,53.30
2023-03-19T01:04:35.391Z,53.10
2023-03-19T01:07:04.417Z,53.70
2023-03-19T01:09:35.284Z,53.60
2023-03-19T01:12:05.221Z,50.60
2023-03-19T01:14:33.743Z,49.20
2023-03-19T01:17:00.712Z,48.00
2023-03-19T01:19:28.115Z,51.50
2023-03-19T01:21:54.996Z,51.70
2023-03-19T01:24:22.804Z,51.60
2023-03-19T01:26:54.316Z,53.90
2023-03-19T01:29:36.262Z,50.20
2023-03-19T01:32:13.964Z,55.90
2023-03-19T01:35:09.591Z,50.10
2023-03-19T01:37:39.076Z,48.90
2023-03-19T01:40:07.013Z,50.50
2023-03-19T01:42:33.662Z,46.30
2023-03-19T01:45:41.890Z,55.60
2023-03-19T01:48:44.591Z,58.20
2023-03-19T01:51:16.779Z,59.20
2023-03-19T01:53:52.247Z,67.60
2023-03-19T01:57:05.961Z,64.70
2023-03-19T02:00:04.804Z,57.00
2023-03-19T02:02:45.222Z,58.90
2023-03-19T02:05:24.895Z,65.00
2023-03-19T02:07:57.814Z,68.50
2023-03-19T02:10:25.631Z,64.80
2023-03-19T02:12:52.875Z,76.70
2023-03-19T02:15:19.892Z,74.20
2023-03-19T02:17:47.135Z,74.60
2023-03-19T02:20:27.385Z,68.50
2023-03-19T02:23:00.392Z,64.20
2023-03-19T02:25:32.840Z,67.10
2023-03-19T02:28:02.314Z,79.40
2023-03-19T02:30:32.384Z,74.00
2023-03-19T02:33:04.319Z,72.90
2023-03-19T02:35:32.590Z,72.00
2023-03-19T02:38:00.517Z,78.80
2023-03-19T02:40:30.309Z,70.10
2023-03-19T02:42:58.274Z,69.60
2023-03-19T02:45:29.280Z,68.50
2023-03-19T02:47:56.334Z,82.30
2023-03-19T02:50:23.111Z,76.20
2023-03-19T02:52:50.094Z,82.80
2023-03-19T02:55:17.854Z,84.70
2023-03-19T02:57:45.130Z,74.50
2023-03-19T03:00:18.192Z,72.90
2023-03-19T03:02:45.329Z,75.20
2023-03-19T03:05:12.992Z,75.90
2023-03-19T03:07:44.450Z,78.50
2023-03-19T03:10:11.466Z,73.70
2023-03-19T03:12:38.287Z,82.80
2023-03-19T03:15:08.574Z,77.70
2023-03-19T03:17:39.226Z,81.20
2023-03-19T03:20:10.823Z,69.40
2023-03-19T03:22:39.991Z,63.70
2023-03-19T03:25:07.118Z,63.40
2023-03-19T03:27:34.301Z,66.30
2023-03-19T03:30:01.117Z,64.40
2023-03-19T03:32:28.074Z,67.20
2023-03-19T03:34:54.865Z,64.90
2023-03-19T03:37:22.601Z,70.50
2023-03-19T03:39:49.257Z,58.70
2023-03-19T03:42:15.823Z,56.80
2023-03-19T03:44:43.080Z,59.50
2023-03-19T03:47:12.590Z,56.00
2023-03-19T03:49:40.963Z,58.30
2023-03-19T03:52:08.488Z,65.10
2023-03-19T03:54:35.164Z,59.80
2023-03-19T03:57:03.522Z,63.70
2023-03-19T03:59:37.097Z,61.30
2023-03-19T04:02:03.761Z,57.50
2023-03-19T04:04:30.477Z,64.80
2023-03-19T04:07:04.046Z,56.80
2023-03-19T04:09:40.590Z,57.40
2023-03-19T04:12:08.877Z,57.90
2023-03-19T04:14:41.556Z,59.30
2023-03-19T04:17:08.702Z,58.40
2023-03-19T04:19:35.697Z,61.70
2023-03-19T04:22:03.242Z,55.40
2023-03-19T04:24:32.586Z,55.10
2023-03-19T04:27:00.240Z,54.50
2023-03-19T04:29:27.662Z,60.00
2023-03-19T04:31:54.399Z,55.20
2023-03-19T04:34:21.055Z,60.40
2023-03-19T04:36:50.272Z,59.80
2023-03-19T04:39:17.556Z,52.50
2023-03-19T04:41:46.598Z,51.90
2023-03-19T04:44:41.559Z,52.60
2023-03-19T04:47:09.877Z,53.00
2023-03-19T04:49:48.273Z,55.80
2023-03-19T04:52:15.487Z,53.40
2023-03-19T04:54:44.000Z,58.30
2023-03-19T04:57:11.804Z,55.70
2023-03-19T04:59:42.145Z,38.90
2023-03-19T05:02:09.604Z,42.60
2023-03-19T05:04:37.210Z,38.50
2023-03-19T05:07:07.943Z,41.60
2023-03-19T05:09:35.787Z,41.00
2023-03-19T05:12:02.358Z,43.30
2023-03-19T05:14:34.669Z,42.40
2023-03-19T05:17:06.902Z,39.00
2023-03-19T05:19:52.248Z,39.00
2023-03-19T05:22:20.635Z,35.80
2023-03-19T05:24:47.520Z,34.50
2023-03-19T05:27:14.466Z,33.60
2023-03-19T05:29:47.574Z,32.60
2023-03-19T05:32:52.564Z,33.40
2023-03-19T05:35:27.191Z,33.50
2023-03-19T05:37:54.233Z,34.00
2023-03-19T05:40:22.670Z,33.10
2023-03-19T05:42:50.708Z,29.50
2023-03-19T05:45:21.906Z,33.70
2023-03-19T05:47:52.384Z,31.90
2023-03-19T05:50:19.239Z,31.70
2023-03-19T05:53:04.456Z,31.40
2023-03-19T05:55:32.326Z,34.30
2023-03-19T05:58:10.023Z,34.40
2023-03-19T06:00:38.396Z,38.90
2023-03-19T06:03:05.080Z,38.60
2023-03-19T06:05:43.245Z,42.90
2023-03-19T06:08:29.354Z,39.60
2023-03-19T06:11:06.305Z,44.20
2023-03-19T06:13:33.551Z,47.40
2023-03-19T06:16:06.048Z,45.20
2023-03-19T06:18:45.167Z,44.10
2023-03-19T06:21:12.616Z,48.60
2023-03-19T06:23:41.142Z,43.50
2023-03-19T06:26:16.678Z,45.60
2023-03-19T06:28:53.181Z,42.80
2023-03-19T06:31:19.984Z,40.70
2023-03-19T06:33:56.461Z,39.50
2023-03-19T06:36:26.426Z,45.30
2023-03-19T06:38:57.819Z,39.40
2023-03-19T06:41:25.184Z,43.10
2023-03-19T06:43:52.638Z,41.80
2023-03-19T06:46:19.335Z,44.10
2023-03-19T06:48:46.448Z,38.80
2023-03-19T06:51:19.747Z,33.70
2023-03-19T06:53:46.441Z,37.40
2023-03-19T06:56:12.997Z,38.80
2023-03-19T06:58:46.492Z,37.60
2023-03-19T07:01:13.659Z,35.10
2023-03-19T07:03:40.711Z,35.20
2023-03-19T07:06:07.274Z,25.40
2023-03-19T07:08:34.361Z,25.70
2023-03-19T07:11:05.484Z,22.90
2023-03-19T07:13:33.106Z,17.80
2023-03-19T07:16:00.318Z,15.90
2023-03-19T07:18:26.965Z,21.20
2023-03-19T07:20:54.809Z,21.10
2023-03-19T07:23:21.588Z,20.00
2023-03-19T07:25:48.402Z,18.80
2023-03-19T07:28:15.860Z,17.10
2023-03-19T07:30:43.561Z,14.70
2023-03-19T07:33:10.379Z,13.80
2023-03-19T07:35:37.270Z,14.80
2023-03-19T07:38:04.099Z,13.60
2023-03-19T07:40:35.022Z,11.00
2023-03-19T07:43:02.645Z,9.40
2023-03-19T07:45:30.674Z,11.70
2023-03-19T07:48:03.067Z,12.70
2023-03-19T07:50:30.672Z,9.00
2023-03-19T07:52:57.398Z,10.00
2023-03-19T07:55:24.032Z,11.10
2023-03-19T07:57:50.872Z,12.10
2023-03-19T08:00:22.009Z,12.70
2023-03-19T08:02:48.878Z,13.80
2023-03-19T08:05:16.243Z,13.00
2023-03-19T08:07:48.825Z,16.40
2023-03-19T08:10:15.742Z,14.20
2023-03-19T08:12:42.703Z,15.00
2023-03-19T08:15:15.343Z,15.10
2023-03-19T08:17:42.989Z,18.30
2023-03-19T08:20:11.460Z,17.10
2023-03-19T08:22:38.562Z,19.90
2023-03-19T08:25:06.868Z,21.70
2023-03-19T08:27:35.425Z,19.90
2023-03-19T08:30:06.877Z,19.20
2023-03-19T08:32:34.571Z,21.80
2023-03-19T08:35:05.510Z,22.10
2023-03-19T08:37:33.740Z,21.20
2023-03-19T08:40:00.605Z,20.20
2023-03-19T08:42:30.430Z,19.30
2023-03-19T08:44:58.250Z,19.80
2023-03-19T08:47:25.110Z,18.70
2023-03-19T08:49:52.888Z,16.40
2023-03-19T08:52:20.097Z,16.80
2023-03-19T08:54:46.970Z,13.90
2023-03-19T08:57:13.713Z,17.60
2023-03-19T08:59:40.762Z,14.00
2023-03-19T09:02:10.002Z,15.50
2023-03-19T09:06:14.356Z,17.20
2023-03-19T09:08:58.029Z,13.20
2023-03-19T09:11:26.801Z,13.20
2023-03-19T09:13:54.812Z,13.80
2023-03-19T09:16:21.962Z,14.80
2023-03-19T09:18:50.601Z,13.10
2023-03-19T09:21:17.875Z,12.60
2023-03-19T09:23:44.974Z,13.40
2023-03-19T09:26:15.116Z,15.10
2023-03-19T09:28:42.157Z,12.00
2023-03-19T09:31:11.005Z,11.80
2023-03-19T09:33:38.205Z,13.40
2023-03-19T09:36:05.413Z,11.50
2023-03-19T09:38:34.736Z,11.60
2023-03-19T09:41:06.929Z,11.70
2023-03-19T09:43:57.161Z,12.40
2023-03-19T09:46:28.893Z,12.10
2023-03-19T09:49:28.757Z,8.90
2023-03-19T09:52:02.931Z,10.70
2023-03-19T09:54:42.091Z,12.40
2023-03-19T09:57:09.341Z,10.70
2023-03-19T09:59:36.726Z,10.40
2023-03-19T10:02:21.273Z,10.80
2023-03-19T10:04:55.391Z,9.20
2023-03-19T10:10:25.505Z,9.30
2023-03-19T10:12:57.327Z,9.60
2023-03-19T10:15:29.216Z,9.00
2023-03-19T10:18:17.346Z,8.20
2023-03-19T10:21:05.340Z,9.70
2023-03-19T10:23:39.385Z,8.50
2023-03-19T10:26:11.501Z,8.20
2023-03-19T10:28:41.679Z,9.10
2023-03-19T10:31:26.371Z,9.20
2023-03-19T10:34:18.908Z,7.90
2023-03-19T10:36:46.887Z,7.80
2023-03-19T10:39:18.600Z,8.60
2023-03-19T10:42:21.270Z,7.90
2023-03-19T10:44:58.867Z,7.90
2023-03-19T10:47:35.659Z,7.50
2023-03-19T10:50:02.883Z,7.70
2023-03-19T10:52:37.218Z,7.80
2023-03-19T10:55:20.632Z,8.90
2023-03-19T10:57:54.096Z,8.20
2023-03-19T11:00:26.483Z,7.80
2023-03-19T11:02:55.936Z,8.40
2023-03-19T11:05:24.700Z,8.30
2023-03-19T11:08:08.782Z,8.70
2023-03-19T11:10:39.466Z,8.00
2023-03-19T11:13:15.524Z,9.20
2023-03-19T11:15:48.269Z,8.50
2023-03-19T11:18:20.884Z,9.70
2023-03-19T11:20:59.120Z,8.60
2023-03-19T11:23:37.617Z,8.80
2023-03-19T11:26:04.602Z,8.90
2023-03-19T11:28:34.176Z,8.50
2023-03-19T11:31:13.150Z,9.10
2023-03-19T11:34:07.268Z,8.90
2023-03-19T11:37:02.942Z,9.40
2023-03-19T11:39:36.856Z,9.00
2023-03-19T11:42:26.503Z,9.00
2023-03-19T11:45:15.643Z,8.60
2023-03-19T11:48:00.846Z,9.30
2023-03-19T11:50:35.930Z,10.10
2023-03-19T11:53:08.872Z,8.30
2023-03-19T11:55:41.818Z,7.90
2023-03-19T11:58:57.090Z,8.10
2023-03-19T12:01:54.923Z,8.50
2023-03-19T12:04:28.085Z,9.40
2023-03-19T12:09:35.569Z,8.80
2023-03-19T12:12:07.501Z,9.60
2023-03-19T12:14:51.365Z,9.40
2023-03-19T12:17:22.573Z,10.60
2023-03-19T12:20:00.577Z,10.00
2023-03-19T12:22:45.758Z,9.40
2023-03-19T12:25:19.103Z,8.30
2023-03-19T12:27:45.822Z,8.30
2023-03-19T12:30:27.560Z,7.90
2023-03-19T12:33:12.419Z,8.80
2023-03-19T12:35:41.422Z,8.30
2023-03-19T12:38:12.726Z,8.90
2023-03-19T12:40:52.146Z,8.70
2023-03-19T12:43:24.320Z,8.60
2023-03-19T12:45:55.671Z,8.80
2023-03-19T12:51:03.014Z,8.60
2023-03-19T12:53:44.057Z,9.40
2023-03-19T12:56:45.373Z,9.00
2023-03-19T12:59:30.439Z,9.50
2023-03-19T13:02:09.950Z,9.10
2023-03-19T13:04:48.096Z,9.20
2023-03-19T13:07:20.876Z,8.60
2023-03-19T13:09:57.188Z,9.40
2023-03-19T13:12:31.638Z,9.00
2023-03-19T13:15:09.922Z,9.10
2023-03-19T13:17:43.203Z,9.60
2023-03-19T13:20:23.803Z,9.00
2023-03-19T13:22:56.152Z,9.80
2023-03-19T13:25:36.370Z,9.00
2023-03-19T13:28:03.069Z,9.10
2023-03-19T13:30:30.841Z,11.50
2023-03-19T13:33:05.708Z,9.60
2023-03-19T13:35:42.645Z,12.00
2023-03-19T13:38:20.551Z,11.90
2023-03-19T13:40:49.455Z,16.60
2023-03-19T13:43:29.122Z,10.90
2023-03-19T13:46:11.312Z,10.80
2023-03-19T13:48:44.960Z,12.20
2023-03-19T13:51:11.951Z,10.30
2023-03-19T13:53:41.902Z,11.60
2023-03-19T13:56:22.519Z,12.00
2023-03-19T13:59:14.130Z,11.60
2023-03-19T14:01:44.061Z,12.60
2023-03-19T14:04:21.939Z,12.10
2023-03-19T14:06:50.942Z,12.70
2023-03-19T14:09:38.840Z,11.10
2023-03-19T14:12:14.736Z,12.40
2023-03-19T14:14:57.994Z,12.10
2023-03-19T14:19:53.127Z,11.20
2023-03-19T14:22:32.045Z,12.80
2023-03-19T14:25:17.968Z,11.50
2023-03-19T14:28:00.169Z,10.80
2023-03-19T14:30:33.465Z,11.40
2023-03-19T14:33:03.992Z,14.60
2023-03-19T14:35:33.214Z,13.20
2023-03-19T14:38:02.843Z,15.10
2023-03-19T14:40:39.061Z,14.20
2023-03-19T14:43:34.082Z,13.30
2023-03-19T14:46:06.746Z,14.70
2023-03-19T14:49:11.832Z,14.70
2023-03-19T14:51:57.260Z,11.20
2023-03-19T14:54:29.754Z,12.40
2023-03-19T14:56:57.205Z,11.80
2023-03-19T14:59:24.349Z,10.20
2023-03-19T15:01:52.551Z,11.60
2023-03-19T15:04:23.850Z,10.30
2023-03-19T15:06:57.050Z,10.70
2023-03-19T15:09:44.104Z,13.90
2023-03-19T15:12:33.018Z,11.30
2023-03-19T15:15:09.505Z,12.60
2023-03-19T15:17:49.220Z,10.80
2023-03-19T15:20:34.640Z,12.80
2023-03-19T15:23:16.362Z,15.00
2023-03-19T15:25:57.636Z,15.90
2023-03-19T15:28:30.029Z,12.10
2023-03-19T15:31:14.459Z,10.30
2023-03-19T15:33:50.372Z,12.70
2023-03-19T15:36:37.944Z,11.40
2023-03-19T15:39:07.079Z,12.80
2023-03-19T15:41:35.935Z,12.00
2023-03-19T15:44:05.429Z,13.20
2023-03-19T15:46:33.738Z,11.70
2023-03-19T15:49:38.452Z,12.10
2023-03-19T15:52:08.736Z,14.50
2023-03-19T15:54:37.292Z,15.50
2023-03-19T15:57:05.367Z,14.40
2023-03-19T15:59:32.600Z,13.10
2023-03-19T16:02:00.476Z,17.90
2023-03-19T16:04:29.646Z,18.10
2023-03-19T16:06:57.531Z,18.30
2023-03-19T16:09:31.300Z,16.20
2023-03-19T16:11:58.314Z,20.10
2023-03-19T16:14:40.332Z,15.00
2023-03-19T16:17:13.928Z,17.80
2023-03-19T16:19:55.455Z,15.70
2023-03-19T16:22:31.757Z,16.60
2023-03-19T16:24:59.038Z,13.20
2023-03-19T16:27:33.472Z,17.40
2023-03-19T16:30:13.748Z,15.50
2023-03-19T16:32:41.939Z,17.50
2023-03-19T16:35:16.039Z,15.80
2023-03-19T16:37:44.277Z,20.60
2023-03-19T16:40:11.600Z,12.60
2023-03-19T16:42:40.091Z,20.20
2023-03-19T16:45:25.428Z,16.20
2023-03-19T16:47:53.361Z,17.50
2023-03-19T16:50:24.032Z,20.30
2023-03-19T16:52:51.029Z,18.00
2023-03-19T16:55:19.361Z,17.80
2023-03-19T16:57:51.979Z,22.50
2023-03-19T17:00:19.835Z,17.20
2023-03-19T17:02:47.520Z,17.40
2023-03-19T17:05:15.682Z,19.60
2023-03-19T17:07:44.185Z,18.30
2023-03-19T17:10:15.492Z,20.00
2023-03-19T17:12:42.791Z,15.70
2023-03-19T17:15:29.905Z,18.80
2023-03-19T17:17:58.178Z,15.70
2023-03-19T17:20:31.347Z,18.40
2023-03-19T17:22:59.013Z,18.10
2023-03-19T17:25:27.189Z,23.50
2023-03-19T17:27:54.011Z,19.60
2023-03-19T17:30:21.091Z,18.70
2023-03-19T17:32:50.366Z,20.20
2023-03-19T17:35:20.889Z,22.00
2023-03-19T17:37:48.159Z,16.90
2023-03-19T17:40:28.520Z,16.90
2023-03-19T17:42:57.212Z,19.40
2023-03-19T17:45:27.082Z,15.60
2023-03-19T17:47:57.515Z,18.80
2023-03-19T17:50:28.906Z,17.60
2023-03-19T17:52:55.660Z,17.50
2023-03-19T17:55:28.872Z,18.10
2023-03-19T17:57:56.314Z,19.00
2023-03-19T18:00:23.727Z,19.30
2023-03-19T18:02:52.202Z,22.40
2023-03-19T18:05:21.199Z,19.40
2023-03-19T18:07:54.745Z,18.40
2023-03-19T18:10:26.985Z,16.20
2023-03-19T18:12:54.027Z,16.20
2023-03-19T18:15:23.125Z,16.30
2023-03-19T18:17:55.593Z,17.70
2023-03-19T18:20:24.820Z,19.10
2023-03-19T18:22:56.050Z,19.60
2023-03-19T18:25:25.545Z,19.10
2023-03-19T18:27:52.499Z,16.30
2023-03-19T18:30:22.395Z,17.60
2023-03-19T18:32:52.121Z,18.70
2023-03-19T18:35:21.273Z,19.20
2023-03-19T18:37:50.038Z,26.50
2023-03-19T18:40:21.776Z,27.40
2023-03-19T18:42:48.893Z,28.70
2023-03-19T18:45:16.759Z,35.90
2023-03-19T18:47:44.300Z,37.80
2023-03-19T18:50:19.069Z,46.10
2023-03-19T18:52:47.579Z,69.40
2023-03-19T18:55:14.449Z,48.00
2023-03-19T18:57:53.224Z,41.10
2023-03-19T19:00:26.144Z,41.90
2023-03-19T19:02:54.837Z,41.40
2023-03-19T19:05:23.673Z,48.30
2023-03-19T19:07:50.938Z,43.90
2023-03-19T19:10:18.025Z,48.40
2023-03-19T19:12:46.884Z,44.40
2023-03-19T19:15:24.932Z,49.60
2023-03-19T19:17:53.989Z,51.80
2023-03-19T19:20:23.755Z,61.80
2023-03-19T19:22:51.264Z,55.70
2023-03-19T19:25:22.918Z,62.20
2023-03-19T19:28:20.513Z,49.10
2023-03-19T19:30:48.689Z,43.90
2023-03-19T19:33:19.933Z,46.90
2023-03-19T19:35:46.576Z,47.50
2023-03-19T19:38:13.552Z,43.40
2023-03-19T19:40:44.450Z,48.10
2023-03-19T19:43:27.405Z,45.70
2023-03-19T19:45:54.882Z,43.60
2023-03-19T19:48:26.794Z,41.10
2023-03-19T19:50:54.567Z,42.60
2023-03-19T19:53:24.523Z,44.30
2023-03-19T19:55:54.193Z,40.20
2023-03-19T19:58:26.661Z,45.00
2023-03-19T20:01:03.287Z,76.90
2023-03-19T20:03:31.862Z,73.70
2023-03-19T20:05:59.597Z,68.60
2023-03-19T20:08:28.038Z,60.60
2023-03-19T20:10:55.460Z,62.50
2023-03-19T20:13:25.858Z,62.10
2023-03-19T20:15:57.425Z,57.00
2023-03-19T20:18:30.809Z,49.60
2023-03-19T20:20:57.714Z,41.30
2023-03-19T20:23:25.051Z,43.60
2023-03-19T20:25:52.020Z,39.80
2023-03-19T20:28:26.965Z,42.60
2023-03-19T20:30:54.934Z,38.10
2023-03-19T20:33:21.847Z,40.50
2023-03-19T20:35:50.255Z,39.10
2023-03-19T20:38:17.430Z,39.10
2023-03-19T20:40:55.003Z,41.90
2023-03-19T20:43:28.393Z,38.70
2023-03-19T20:45:57.045Z,38.90
2023-03-19T20:48:24.416Z,38.60
2023-03-19T20:50:51.726Z,40.60
2023-03-19T20:53:18.502Z,37.10
2023-03-19T20:55:47.327Z,40.90
2023-03-19T20:58:17.022Z,41.00
2023-03-19T21:00:44.177Z,43.40
2023-03-19T21:03:21.847Z,40.00
2023-03-19T21:05:51.219Z,43.80
2023-03-19T21:08:42.515Z,46.20
2023-03-19T21:11:17.217Z,42.10
2023-03-19T21:13:48.971Z,43.60
2023-03-19T21:16:25.513Z,38.20
2023-03-19T21:18:56.555Z,39.80
2023-03-19T21:24:07.550Z,41.20
2023-03-19T21:26:36.593Z,38.50
2023-03-19T21:29:06.660Z,36.10
2023-03-19T21:31:36.885Z,39.50
2023-03-19T21:34:05.704Z,38.40
2023-03-19T21:36:32.738Z,37.60
2023-03-19T21:39:01.528Z,38.10
2023-03-19T21:41:31.419Z,39.20
2023-03-19T21:44:14.117Z,42.90
2023-03-19T21:46:41.900Z,37.60
2023-03-19T21:49:10.657Z,37.30
2023-03-19T21:51:43.664Z,36.00
2023-03-19T21:54:11.006Z,36.80
2023-03-19T21:56:40.081Z,34.60
2023-03-19T21:59:16.148Z,36.50
2023-03-19T22:01:42.804Z,33.40
2023-03-19T22:04:09.757Z,35.60
2023-03-19T22:06:37.048Z,37.10
2023-03-19T22:09:04.125Z,34.70
2023-03-19T22:11:34.055Z,35.10
2023-03-19T22:14:11.837Z,31.40
2023-03-19T22:16:42.025Z,30.60
2023-03-19T22:19:17.140Z,32.70
2023-03-19T22:21:45.063Z,31.00
2023-03-19T22:24:12.115Z,32.00
2023-03-19T22:26:40.355Z,25.90
2023-03-19T22:29:18.777Z,30.40
2023-03-19T22:31:48.067Z,32.00
2023-03-19T22:34:16.242Z,30.00
2023-03-19T22:36:49.793Z,29.40
2023-03-19T22:39:16.932Z,27.20
2023-03-19T22:41:50.301Z,27.70
2023-03-19T22:44:30.762Z,25.60
2023-03-19T22:46:59.385Z,28.00
2023-03-19T22:49:27.675Z,29.90
2023-03-19T22:51:56.404Z,27.00
2023-03-19T22:54:23.689Z,27.10
2023-03-19T22:56:51.812Z,28.70
2023-03-19T22:59:22.423Z,36.70
2023-03-19T23:01:50.649Z,40.20
2023-03-19T23:04:23.707Z,69.40
2023-03-19T23:06:52.291Z,72.60
2023-03-19T23:09:30.329Z,68.40
2023-03-19T23:11:58.803Z,113.00
2023-03-19T23:14:30.645Z,92.40
2023-03-19T23:17:01.097Z,91.40
2023-03-19T23:19:32.484Z,109.30
2023-03-19T23:22:00.715Z,140.50
2023-03-19T23:24:30.937Z,110.90
2023-03-19T23:27:04.478Z,125.80
2023-03-19T23:29:37.167Z,115.60
2023-03-19T23:32:04.421Z,121.80
2023-03-19T23:34:33.527Z,121.40
2023-03-19T23:37:02.234Z,95.90
2023-03-19T23:39:30.913Z,80.30
2023-03-19T23:41:58.524Z,76.30
2023-03-19T23:44:28.447Z,57.90
2023-03-19T23:46:55.683Z,65.70
2023-03-19T23:49:31.835Z,49.30
2023-03-19T23:51:59.927Z,34.30
2023-03-19T23:54:31.775Z,32.80
2023-03-19T23:57:00.976Z,58.80
2023-03-19T23:59:31.071Z,54.90
